sensor_id;sensor_type;location;lat;lon;timestamp;P1;durP1;ratioP1;P2;durP2;ratioP2
54935;SDS011;40838;50.676;7.838;2023-03-20T00:00:22;45.97;;;23.77;;
54935;SDS011;40838;50.676;7.838;2023-03-20T00:02:53;41.70;;;21.88;;
54935;SDS011;40838;50.676;7.838;2023-03-20T00:05:21;39.80;;;20.45;;
54935;SDS011;40838;50.676;7.838;2023-03-20T00:07:49;41.90;;;22.58;;
54935;SDS011;40838;50.676;7.838;2023-03-20T00:10:17;46.13;;;23.40;;
54935;SDS011;40838;50.676;7.838;2023-03-20T00:12:47;55.17;;;26.85;;
54935;SDS011;40838;50.676;7.838;2023-03-20T00:15:26;61.35;;;27.80;;
54935;SDS011;40838;50.676;7.838;2023-03-20T00:17:55;73.68;;;34.55;;
54935;SDS011;40838;50.676;7.838;2023-03-20T00:20:22;70.63;;;32.30;;
54935;SDS011;40838;50.676;7.838;2023-03-20T00:22:49;78.63;;;35.67;;
54935;SDS011;40838;50.676;7.838;2023-03-20T00:25:18;85.28;;;37.63;;
54935;SDS011;40838;50.676;7.838;2023-03-20T00:27:48;86.90;;;38.97;;
54935;SDS011;40838;50.676;7.838;2023-03-20T00:30:17;95.93;;;40.15;;
54935;SDS011;40838;50.676;7.838;2023-03-20T00:32:47;105.60;;;44.08;;
54935;SDS011;40838;50.676;7.838;2023-03-20T00:35:16;104.65;;;44.78;;
54935;SDS011;40838;50.676;7.838;2023-03-20T00:37:45;109.50;;;48.63;;
54935;SDS011;40838;50.676;7.838;2023-03-20T00:40:13;108.35;;;45.78;;
54935;SDS011;40838;50.676;7.838;2023-03-20T00:42:40;118.78;;;47.60;;
54935;SDS011;40838;50.676;7.838;2023-03-20T00:45:11;130.38;;;51.10;;
54935;SDS011;40838;50.676;7.838;2023-03-20T00:47:41;127.30;;;49.95;;
54935;SDS011;40838;50.676;7.838;2023-03-20T00:50:15;126.45;;;48.47;;
54935;SDS011;40838;50.676;7.838;2023-03-20T00:52:44;143.85;;;51.17;;
54935;SDS011;40838;50.676;7.838;2023-03-20T00:55:11;143.18;;;49.97;;
54935;SDS011;40838;50.676;7.838;2023-03-20T00:57:40;162.02;;;53.45;;
54935;SDS011;40838;50.676;7.838;2023-03-20T01:00:16;176.93;;;57.78;;
54935;SDS011;40838;50.676;7.838;2023-03-20T01:02:47;174.98;;;56.38;;
54935;SDS011;40838;50.676;7.838;2023-03-20T01:05:14;183.82;;;57.45;;
54935;SDS011;40838;50.676;7.838;2023-03-20T01:07:43;193.98;;;58.50;;
54935;SDS011;40838;50.676;7.838;2023-03-20T01:10:11;192.38;;;59.08;;
54935;SDS011;40838;50.676;7.838;2023-03-20T01:12:38;190.02;;;58.33;;
54935;SDS011;40838;50.676;7.838;2023-03-20T01:15:14;214.88;;;60.60;;
54935;SDS011;40838;50.676;7.838;2023-03-20T01:17:48;189.57;;;58.28;;
54935;SDS011;40838;50.676;7.838;2023-03-20T01:20:20;218.60;;;59.70;;
54935;SDS011;40838;50.676;7.838;2023-03-20T01:22:49;193.75;;;57.92;;
54935;SDS011;40838;50.676;7.838;2023-03-20T01:25:16;187.43;;;58.90;;
54935;SDS011;40838;50.676;7.838;2023-03-20T01:27:44;227.52;;;61.95;;
54935;SDS011;40838;50.676;7.838;2023-03-20T01:30:27;202.00;;;56.20;;
54935;SDS011;40838;50.676;7.838;2023-03-20T01:32:55;191.73;;;57.45;;
54935;SDS011;40838;50.676;7.838;2023-03-20T01:35:24;166.93;;;56.53;;
54935;SDS011;40838;50.676;7.838;2023-03-20T01:37:55;176.40;;;54.60;;
54935;SDS011;40838;50.676;7.838;2023-03-20T01:40:28;148.80;;;52.63;;
54935;SDS011;40838;50.676;7.838;2023-03-20T01:42:58;148.18;;;47.58;;
54935;SDS011;40838;50.676;7.838;2023-03-20T01:45:30;141.80;;;48.88;;
54935;SDS011;40838;50.676;7.838;2023-03-20T01:48:01;139.05;;;46.10;;
54935;SDS011;40838;50.676;7.838;2023-03-20T01:50:38;125.22;;;45.05;;
54935;SDS011;40838;50.676;7.838;2023-03-20T01:53:12;126.20;;;43.75;;
54935;SDS011;40838;50.676;7.838;2023-03-20T01:55:47;143.13;;;46.72;;
54935;SDS011;40838;50.676;7.838;2023-03-20T01:58:20;136.15;;;46.88;;
54935;SDS011;40838;50.676;7.838;2023-03-20T02:00:54;125.70;;;42.03;;
54935;SDS011;40838;50.676;7.838;2023-03-20T02:03:21;126.78;;;42.13;;
54935;SDS011;40838;50.676;7.838;2023-03-20T02:06:22;116.35;;;41.83;;
54935;SDS011;40838;50.676;7.838;2023-03-20T02:09:19;107.35;;;38.55;;
54935;SDS011;40838;50.676;7.838;2023-03-20T02:11:47;106.95;;;38.65;;
54935;SDS011;40838;50.676;7.838;2023-03-20T02:14:17;110.28;;;39.42;;
54935;SDS011;40838;50.676;7.838;2023-03-20T02:17:03;103.83;;;37.73;;
54935;SDS011;40838;50.676;7.838;2023-03-20T02:19:48;113.80;;;39.43;;
54935;SDS011;40838;50.676;7.838;2023-03-20T02:25:31;105.28;;;41.80;;
54935;SDS011;40838;50.676;7.838;2023-03-20T02:31:49;117.68;;;41.28;;
54935;SDS011;40838;50.676;7.838;2023-03-20T02:37:51;116.07;;;40.80;;
54935;SDS011;40838;50.676;7.838;2023-03-20T02:40:47;113.40;;;41.58;;
54935;SDS011;40838;50.676;7.838;2023-03-20T02:43:26;111.40;;;40.88;;
54935;SDS011;40838;50.676;7.838;2023-03-20T02:46:03;107.88;;;40.50;;
54935;SDS011;40838;50.676;7.838;2023-03-20T02:48:42;106.97;;;41.05;;
54935;SDS011;40838;50.676;7.838;2023-03-20T02:51:14;113.20;;;41.45;;
54935;SDS011;40838;50.676;7.838;2023-03-20T02:53:51;104.05;;;39.30;;
54935;SDS011;40838;50.676;7.838;2023-03-20T02:56:27;115.15;;;41.42;;
54935;SDS011;40838;50.676;7.838;2023-03-20T02:58:59;101.53;;;39.42;;
54935;SDS011;40838;50.676;7.838;2023-03-20T03:01:34;102.25;;;39.67;;
54935;SDS011;40838;50.676;7.838;2023-03-20T03:04:07;101.80;;;39.28;;
54935;SDS011;40838;50.676;7.838;2023-03-20T03:06:39;95.22;;;37.22;;
54935;SDS011;40838;50.676;7.838;2023-03-20T03:09:12;103.15;;;37.90;;
54935;SDS011;40838;50.676;7.838;2023-03-20T03:11:43;100.38;;;38.47;;
54935;SDS011;40838;50.676;7.838;2023-03-20T03:14:15;94.57;;;35.00;;
54935;SDS011;40838;50.676;7.838;2023-03-20T03:16:44;93.95;;;37.03;;
54935;SDS011;40838;50.676;7.838;2023-03-20T03:19:14;91.00;;;36.22;;
54935;SDS011;40838;50.676;7.838;2023-03-20T03:21:45;88.93;;;35.35;;
54935;SDS011;40838;50.676;7.838;2023-03-20T03:24:20;92.05;;;37.30;;
54935;SDS011;40838;50.676;7.838;2023-03-20T03:26:53;89.18;;;35.65;;
54935;SDS011;40838;50.676;7.838;2023-03-20T03:29:22;90.65;;;36.55;;
54935;SDS011;40838;50.676;7.838;2023-03-20T03:31:52;86.32;;;35.58;;
54935;SDS011;40838;50.676;7.838;2023-03-20T03:34:20;81.93;;;35.55;;
54935;SDS011;40838;50.676;7.838;2023-03-20T03:36:48;85.13;;;34.97;;
54935;SDS011;40838;50.676;7.838;2023-03-20T03:39:23;76.97;;;33.83;;
54935;SDS011;40838;50.676;7.838;2023-03-20T03:41:58;77.47;;;34.50;;
54935;SDS011;40838;50.676;7.838;2023-03-20T03:44:33;86.63;;;33.03;;
54935;SDS011;40838;50.676;7.838;2023-03-20T03:47:04;82.03;;;33.72;;
54935;SDS011;40838;50.676;7.838;2023-03-20T03:49:35;90.43;;;35.42;;
54935;SDS011;40838;50.676;7.838;2023-03-20T03:52:05;87.97;;;35.50;;
54935;SDS011;40838;50.676;7.838;2023-03-20T03:54:39;85.90;;;34.63;;
54935;SDS011;40838;50.676;7.838;2023-03-20T03:57:30;81.53;;;35.88;;
54935;SDS011;40838;50.676;7.838;2023-03-20T04:00:03;78.00;;;33.43;;
54935;SDS011;40838;50.676;7.838;2023-03-20T04:02:38;81.30;;;32.17;;
54935;SDS011;40838;50.676;7.838;2023-03-20T04:05:06;85.90;;;35.47;;
54935;SDS011;40838;50.676;7.838;2023-03-20T04:07:34;83.38;;;35.00;;
54935;SDS011;40838;50.676;7.838;2023-03-20T04:10:04;87.35;;;35.47;;
54935;SDS011;40838;50.676;7.838;2023-03-20T04:12:33;87.20;;;34.95;;
54935;SDS011;40838;50.676;7.838;2023-03-20T04:15:02;80.93;;;33.60;;
54935;SDS011;40838;50.676;7.838;2023-03-20T04:17:31;86.57;;;35.92;;
54935;SDS011;40838;50.676;7.838;2023-03-20T04:19:58;79.63;;;33.10;;
54935;SDS011;40838;50.676;7.838;2023-03-20T04:22:25;85.63;;;35.58;;
54935;SDS011;40838;50.676;7.838;2023-03-20T04:24:55;79.80;;;34.88;;
54935;SDS011;40838;50.676;7.838;2023-03-20T04:27:27;81.45;;;34.08;;
54935;SDS011;40838;50.676;7.838;2023-03-20T04:29:54;86.55;;;35.67;;
54935;SDS011;40838;50.676;7.838;2023-03-20T04:32:44;71.82;;;33.28;;
54935;SDS011;40838;50.676;7.838;2023-03-20T04:35:34;76.00;;;34.15;;
54935;SDS011;40838;50.676;7.838;2023-03-20T04:38:06;75.25;;;33.08;;
54935;SDS011;40838;50.676;7.838;2023-03-20T04:40:34;75.28;;;32.25;;
54935;SDS011;40838;50.676;7.838;2023-03-20T04:43:03;65.35;;;31.98;;
54935;SDS011;40838;50.676;7.838;2023-03-20T04:45:30;74.53;;;31.58;;
54935;SDS011;40838;50.676;7.838;2023-03-20T04:47:58;70.78;;;33.33;;
54935;SDS011;40838;50.676;7.838;2023-03-20T04:50:26;68.80;;;30.98;;
54935;SDS011;40838;50.676;7.838;2023-03-20T04:52:54;72.25;;;32.63;;
54935;SDS011;40838;50.676;7.838;2023-03-20T04:55:21;73.40;;;33.80;;
54935;SDS011;40838;50.676;7.838;2023-03-20T04:57:49;71.10;;;32.72;;
54935;SDS011;40838;50.676;7.838;2023-03-20T05:00:17;73.97;;;31.80;;
54935;SDS011;40838;50.676;7.838;2023-03-20T05:02:45;69.47;;;31.88;;
54935;SDS011;40838;50.676;7.838;2023-03-20T05:05:13;65.50;;;30.40;;
54935;SDS011;40838;50.676;7.838;2023-03-20T05:07:41;67.78;;;31.80;;
54935;SDS011;40838;50.676;7.838;2023-03-20T05:10:13;68.45;;;31.70;;
54935;SDS011;40838;50.676;7.838;2023-03-20T05:12:48;63.97;;;29.42;;
54935;SDS011;40838;50.676;7.838;2023-03-20T05:15:36;66.07;;;31.17;;
54935;SDS011;40838;50.676;7.838;2023-03-20T05:18:21;68.40;;;29.30;;
54935;SDS011;40838;50.676;7.838;2023-03-20T05:21:03;74.65;;;31.83;;
54935;SDS011;40838;50.676;7.838;2023-03-20T05:23:57;64.20;;;30.85;;
54935;SDS011;40838;50.676;7.838;2023-03-20T05:26:45;69.53;;;32.05;;
54935;SDS011;40838;50.676;7.838;2023-03-20T05:29:22;66.90;;;30.85;;
54935;SDS011;40838;50.676;7.838;2023-03-20T05:32:05;75.50;;;32.72;;
54935;SDS011;40838;50.676;7.838;2023-03-20T05:35:05;70.10;;;31.00;;
54935;SDS011;40838;50.676;7.838;2023-03-20T05:37:59;67.03;;;30.65;;
54935;SDS011;40838;50.676;7.838;2023-03-20T05:40:45;74.22;;;32.80;;
54935;SDS011;40838;50.676;7.838;2023-03-20T05:43:40;77.25;;;33.22;;
54935;SDS011;40838;50.676;7.838;2023-03-20T05:46:22;80.63;;;32.55;;
54935;SDS011;40838;50.676;7.838;2023-03-20T05:49:11;79.35;;;32.92;;
54935;SDS011;40838;50.676;7.838;2023-03-20T05:51:57;75.22;;;33.65;;
54935;SDS011;40838;50.676;7.838;2023-03-20T05:54:41;93.72;;;33.65;;
54935;SDS011;40838;50.676;7.838;2023-03-20T05:57:35;76.07;;;32.47;;
54935;SDS011;40838;50.676;7.838;2023-03-20T06:00:25;67.10;;;31.10;;
54935;SDS011;40838;50.676;7.838;2023-03-20T06:03:30;76.75;;;31.08;;
54935;SDS011;40838;50.676;7.838;2023-03-20T06:06:09;64.38;;;30.10;;
54935;SDS011;40838;50.676;7.838;2023-03-20T06:08:37;71.47;;;31.85;;
54935;SDS011;40838;50.676;7.838;2023-03-20T06:11:04;67.90;;;31.45;;
54935;SDS011;40838;50.676;7.838;2023-03-20T06:13:36;66.82;;;31.15;;
54935;SDS011;40838;50.676;7.838;2023-03-20T06:16:03;63.92;;;29.73;;
54935;SDS011;40838;50.676;7.838;2023-03-20T06:18:31;64.90;;;29.73;;
54935;SDS011;40838;50.676;7.838;2023-03-20T06:20:58;63.78;;;29.77;;
54935;SDS011;40838;50.676;7.838;2023-03-20T06:23:29;65.75;;;29.35;;
54935;SDS011;40838;50.676;7.838;2023-03-20T06:25:58;57.95;;;27.92;;
54935;SDS011;40838;50.676;7.838;2023-03-20T06:28:25;59.30;;;29.67;;
54935;SDS011;40838;50.676;7.838;2023-03-20T06:31:00;63.45;;;30.15;;
54935;SDS011;40838;50.676;7.838;2023-03-20T06:33:28;59.10;;;29.10;;
54935;SDS011;40838;50.676;7.838;2023-03-20T06:35:57;65.10;;;31.42;;
54935;SDS011;40838;50.676;7.838;2023-03-20T06:38:27;64.28;;;31.35;;
54935;SDS011;40838;50.676;7.838;2023-03-20T06:40:56;63.00;;;30.75;;
54935;SDS011;40838;50.676;7.838;2023-03-20T06:43:23;64.53;;;32.13;;
54935;SDS011;40838;50.676;7.838;2023-03-20T06:45:51;57.85;;;28.95;;
54935;SDS011;40838;50.676;7.838;2023-03-20T06:48:21;58.45;;;28.35;;
54935;SDS011;40838;50.676;7.838;2023-03-20T06:50:49;62.75;;;29.75;;
54935;SDS011;40838;50.676;7.838;2023-03-20T06:53:18;64.82;;;30.80;;
54935;SDS011;40838;50.676;7.838;2023-03-20T06:56:07;57.22;;;27.88;;
54935;SDS011;40838;50.676;7.838;2023-03-20T06:58:38;65.65;;;32.17;;
54935;SDS011;40838;50.676;7.838;2023-03-20T07:01:13;63.50;;;30.85;;
54935;SDS011;40838;50.676;7.838;2023-03-20T07:03:42;62.50;;;30.92;;
54935;SDS011;40838;50.676;7.838;2023-03-20T07:06:09;63.70;;;31.90;;
54935;SDS011;40838;50.676;7.838;2023-03-20T07:08:38;68.28;;;31.27;;
54935;SDS011;40838;50.676;7.838;2023-03-20T07:11:07;64.07;;;30.45;;
54935;SDS011;40838;50.676;7.838;2023-03-20T07:13:36;60.28;;;29.33;;
54935;SDS011;40838;50.676;7.838;2023-03-20T07:16:17;61.80;;;29.73;;
54935;SDS011;40838;50.676;7.838;2023-03-20T07:18:44;58.20;;;28.42;;
54935;SDS011;40838;50.676;7.838;2023-03-20T07:21:12;57.47;;;27.05;;
54935;SDS011;40838;50.676;7.838;2023-03-20T07:23:44;59.03;;;29.00;;
54935;SDS011;40838;50.676;7.838;2023-03-20T07:26:15;63.33;;;28.83;;
54935;SDS011;40838;50.676;7.838;2023-03-20T07:28:42;48.97;;;25.17;;
54935;SDS011;40838;50.676;7.838;2023-03-20T07:31:20;44.28;;;23.60;;
54935;SDS011;40838;50.676;7.838;2023-03-20T07:33:53;46.40;;;22.08;;
54935;SDS011;40838;50.676;7.838;2023-03-20T07:36:20;44.33;;;23.77;;
54935;SDS011;40838;50.676;7.838;2023-03-20T07:38:47;45.35;;;21.48;;
54935;SDS011;40838;50.676;7.838;2023-03-20T07:41:16;40.13;;;21.58;;
54935;SDS011;40838;50.676;7.838;2023-03-20T07:43:52;40.25;;;21.33;;
54935;SDS011;40838;50.676;7.838;2023-03-20T07:46:19;41.90;;;22.67;;
54935;SDS011;40838;50.676;7.838;2023-03-20T07:48:46;51.22;;;24.73;;
54935;SDS011;40838;50.676;7.838;2023-03-20T07:51:13;40.70;;;19.90;;
54935;SDS011;40838;50.676;7.838;2023-03-20T07:53:42;39.38;;;19.90;;
54935;SDS011;40838;50.676;7.838;2023-03-20T07:56:09;33.00;;;17.73;;
54935;SDS011;40838;50.676;7.838;2023-03-20T07:58:38;34.70;;;16.88;;
54935;SDS011;40838;50.676;7.838;2023-03-20T08:01:05;34.55;;;16.92;;
54935;SDS011;40838;50.676;7.838;2023-03-20T08:03:32;32.95;;;18.30;;
54935;SDS011;40838;50.676;7.838;2023-03-20T08:06:00;33.45;;;18.70;;
54935;SDS011;40838;50.676;7.838;2023-03-20T08:08:28;42.28;;;19.33;;
54935;SDS011;40838;50.676;7.838;2023-03-20T08:10:55;35.97;;;17.45;;
54935;SDS011;40838;50.676;7.838;2023-03-20T08:13:21;31.67;;;18.75;;
54935;SDS011;40838;50.676;7.838;2023-03-20T08:15:50;32.00;;;18.38;;
54935;SDS011;40838;50.676;7.838;2023-03-20T08:18:17;32.58;;;17.00;;
54935;SDS011;40838;50.676;7.838;2023-03-20T08:20:44;29.45;;;16.45;;
54935;SDS011;40838;50.676;7.838;2023-03-20T08:23:11;33.20;;;16.83;;
54935;SDS011;40838;50.676;7.838;2023-03-20T08:25:38;29.25;;;16.30;;
54935;SDS011;40838;50.676;7.838;2023-03-20T08:28:05;34.08;;;17.00;;
54935;SDS011;40838;50.676;7.838;2023-03-20T08:30:32;34.53;;;17.13;;
54935;SDS011;40838;50.676;7.838;2023-03-20T08:33:00;27.75;;;15.68;;
54935;SDS011;40838;50.676;7.838;2023-03-20T08:35:27;26.73;;;14.68;;
54935;SDS011;40838;50.676;7.838;2023-03-20T08:37:54;26.85;;;15.98;;
54935;SDS011;40838;50.676;7.838;2023-03-20T08:40:21;26.35;;;14.85;;
54935;SDS011;40838;50.676;7.838;2023-03-20T08:42:48;30.30;;;16.17;;
54935;SDS011;40838;50.676;7.838;2023-03-20T08:45:15;30.95;;;16.35;;
54935;SDS011;40838;50.676;7.838;2023-03-20T08:47:42;31.50;;;17.27;;
54935;SDS011;40838;50.676;7.838;2023-03-20T08:50:10;30.30;;;16.05;;
54935;SDS011;40838;50.676;7.838;2023-03-20T08:52:37;27.45;;;15.80;;
54935;SDS011;40838;50.676;7.838;2023-03-20T08:55:08;28.60;;;15.00;;
54935;SDS011;40838;50.676;7.838;2023-03-20T08:57:35;29.85;;;16.20;;
54935;SDS011;40838;50.676;7.838;2023-03-20T09:00:02;28.88;;;15.77;;
54935;SDS011;40838;50.676;7.838;2023-03-20T09:02:30;30.95;;;16.52;;
54935;SDS011;40838;50.676;7.838;2023-03-20T09:04:57;28.80;;;14.75;;
54935;SDS011;40838;50.676;7.838;2023-03-20T09:07:25;30.50;;;15.90;;
54935;SDS011;40838;50.676;7.838;2023-03-20T09:09:52;31.90;;;16.50;;
54935;SDS011;40838;50.676;7.838;2023-03-20T09:12:19;29.73;;;17.60;;
54935;SDS011;40838;50.676;7.838;2023-03-20T09:14:46;28.67;;;16.00;;
54935;SDS011;40838;50.676;7.838;2023-03-20T09:17:12;26.27;;;14.75;;
54935;SDS011;40838;50.676;7.838;2023-03-20T09:19:39;26.67;;;15.35;;
54935;SDS011;40838;50.676;7.838;2023-03-20T09:22:09;25.02;;;14.75;;
54935;SDS011;40838;50.676;7.838;2023-03-20T09:24:39;27.33;;;14.93;;
54935;SDS011;40838;50.676;7.838;2023-03-20T09:27:06;26.50;;;15.10;;
54935;SDS011;40838;50.676;7.838;2023-03-20T09:29:33;24.83;;;14.43;;
54935;SDS011;40838;50.676;7.838;2023-03-20T09:31:59;25.58;;;13.93;;
54935;SDS011;40838;50.676;7.838;2023-03-20T09:34:27;27.55;;;15.60;;
54935;SDS011;40838;50.676;7.838;2023-03-20T09:36:53;22.60;;;14.38;;
54935;SDS011;40838;50.676;7.838;2023-03-20T09:39:20;23.40;;;14.57;;
54935;SDS011;40838;50.676;7.838;2023-03-20T09:41:48;24.38;;;13.60;;
54935;SDS011;40838;50.676;7.838;2023-03-20T09:44:18;25.85;;;14.25;;
54935;SDS011;40838;50.676;7.838;2023-03-20T09:47:03;23.70;;;13.63;;
54935;SDS011;40838;50.676;7.838;2023-03-20T09:49:38;21.33;;;12.65;;
54935;SDS011;40838;50.676;7.838;2023-03-20T09:52:23;22.65;;;12.55;;
54935;SDS011;40838;50.676;7.838;2023-03-20T09:54:55;21.70;;;12.40;;
54935;SDS011;40838;50.676;7.838;2023-03-20T09:57:26;18.83;;;12.23;;
54935;SDS011;40838;50.676;7.838;2023-03-20T09:59:56;19.77;;;10.88;;
54935;SDS011;40838;50.676;7.838;2023-03-20T10:02:31;18.65;;;10.18;;
54935;SDS011;40838;50.676;7.838;2023-03-20T10:05:03;19.38;;;10.85;;
54935;SDS011;40838;50.676;7.838;2023-03-20T10:07:40;19.23;;;9.55;;
54935;SDS011;40838;50.676;7.838;2023-03-20T10:10:08;14.95;;;9.35;;
54935;SDS011;40838;50.676;7.838;2023-03-20T10:12:47;17.27;;;9.98;;
54935;SDS011;40838;50.676;7.838;2023-03-20T10:15:25;15.60;;;9.40;;
54935;SDS011;40838;50.676;7.838;2023-03-20T10:18:04;13.90;;;8.57;;
54935;SDS011;40838;50.676;7.838;2023-03-20T10:20:41;15.10;;;8.45;;
54935;SDS011;40838;50.676;7.838;2023-03-20T10:23:15;14.70;;;8.57;;
54935;SDS011;40838;50.676;7.838;2023-03-20T10:25:52;14.73;;;8.32;;
54935;SDS011;40838;50.676;7.838;2023-03-20T10:28:23;13.10;;;7.38;;
54935;SDS011;40838;50.676;7.838;2023-03-20T10:31:00;13.80;;;8.10;;
54935;SDS011;40838;50.676;7.838;2023-03-20T10:33:44;12.25;;;7.15;;
54935;SDS011;40838;50.676;7.838;2023-03-20T10:36:23;11.48;;;7.72;;
54935;SDS011;40838;50.676;7.838;2023-03-20T10:39:01;16.08;;;7.80;;
54935;SDS011;40838;50.676;7.838;2023-03-20T10:41:35;9.07;;;6.55;;
54935;SDS011;40838;50.676;7.838;2023-03-20T10:44:08;9.27;;;5.88;;
54935;SDS011;40838;50.676;7.838;2023-03-20T10:46:41;11.25;;;5.70;;
54935;SDS011;40838;50.676;7.838;2023-03-20T10:49:12;8.23;;;5.93;;
54935;SDS011;40838;50.676;7.838;2023-03-20T10:51:45;10.73;;;7.10;;
54935;SDS011;40838;50.676;7.838;2023-03-20T10:54:20;10.80;;;5.70;;
54935;SDS011;40838;50.676;7.838;2023-03-20T10:56:50;7.70;;;5.35;;
54935;SDS011;40838;50.676;7.838;2023-03-20T10:59:23;11.82;;;6.03;;
54935;SDS011;40838;50.676;7.838;2023-03-20T11:01:51;7.25;;;4.78;;
54935;SDS011;40838;50.676;7.838;2023-03-20T11:04:18;8.52;;;4.95;;
54935;SDS011;40838;50.676;7.838;2023-03-20T11:06:47;7.88;;;4.30;;
54935;SDS011;40838;50.676;7.838;2023-03-20T11:09:21;5.78;;;4.05;;
54935;SDS011;40838;50.676;7.838;2023-03-20T11:11:51;7.65;;;4.80;;
54935;SDS011;40838;50.676;7.838;2023-03-20T11:14:23;8.20;;;5.20;;
54935;SDS011;40838;50.676;7.838;2023-03-20T11:16:52;11.48;;;5.55;;
54935;SDS011;40838;50.676;7.838;2023-03-20T11:19:21;8.15;;;4.40;;
54935;SDS011;40838;50.676;7.838;2023-03-20T11:21:50;7.80;;;4.32;;
54935;SDS011;40838;50.676;7.838;2023-03-20T11:24:25;13.27;;;4.25;;
54935;SDS011;40838;50.676;7.838;2023-03-20T11:27:03;9.95;;;3.72;;
54935;SDS011;40838;50.676;7.838;2023-03-20T11:29:33;7.82;;;3.60;;
54935;SDS011;40838;50.676;7.838;2023-03-20T11:32:05;10.65;;;4.65;;
54935;SDS011;40838;50.676;7.838;2023-03-20T11:34:35;7.20;;;3.05;;
54935;SDS011;40838;50.676;7.838;2023-03-20T11:37:05;6.47;;;3.22;;
54935;SDS011;40838;50.676;7.838;2023-03-20T11:39:51;3.25;;;2.70;;
54935;SDS011;40838;50.676;7.838;2023-03-20T11:42:22;4.60;;;2.72;;
54935;SDS011;40838;50.676;7.838;2023-03-20T11:44:56;4.68;;;2.80;;
54935;SDS011;40838;50.676;7.838;2023-03-20T11:47:25;5.25;;;2.97;;
54935;SDS011;40838;50.676;7.838;2023-03-20T11:49:54;5.20;;;2.67;;
54935;SDS011;40838;50.676;7.838;2023-03-20T11:52:23;5.03;;;2.40;;
54935;SDS011;40838;50.676;7.838;2023-03-20T11:54:53;5.07;;;2.83;;
54935;SDS011;40838;50.676;7.838;2023-03-20T11:57:27;6.72;;;3.13;;
54935;SDS011;40838;50.676;7.838;2023-03-20T11:59:58;7.80;;;3.20;;
54935;SDS011;40838;50.676;7.838;2023-03-20T12:02:29;6.30;;;3.00;;
54935;SDS011;40838;50.676;7.838;2023-03-20T12:04:58;5.75;;;2.78;;
54935;SDS011;40838;50.676;7.838;2023-03-20T12:07:26;6.25;;;3.00;;
54935;SDS011;40838;50.676;7.838;2023-03-20T12:09:58;4.82;;;2.47;;
54935;SDS011;40838;50.676;7.838;2023-03-20T12:12:33;4.75;;;3.35;;
54935;SDS011;40838;50.676;7.838;2023-03-20T12:15:09;5.68;;;2.78;;
54935;SDS011;40838;50.676;7.838;2023-03-20T12:17:44;5.80;;;3.28;;
54935;SDS011;40838;50.676;7.838;2023-03-20T12:20:15;5.72;;;2.85;;
54935;SDS011;40838;50.676;7.838;2023-03-20T12:22:50;8.25;;;3.00;;
54935;SDS011;40838;50.676;7.838;2023-03-20T12:25:23;5.53;;;2.92;;
54935;SDS011;40838;50.676;7.838;2023-03-20T12:27:55;5.35;;;3.58;;
54935;SDS011;40838;50.676;7.838;2023-03-20T12:30:31;4.13;;;2.08;;
54935;SDS011;40838;50.676;7.838;2023-03-20T12:33:09;5.68;;;2.40;;
54935;SDS011;40838;50.676;7.838;2023-03-20T12:35:40;5.22;;;2.75;;
54935;SDS011;40838;50.676;7.838;2023-03-20T12:38:15;5.68;;;2.83;;
54935;SDS011;40838;50.676;7.838;2023-03-20T12:40:49;4.60;;;2.15;;
54935;SDS011;40838;50.676;7.838;2023-03-20T12:43:20;7.15;;;3.65;;
54935;SDS011;40838;50.676;7.838;2023-03-20T12:45:55;9.32;;;2.17;;
54935;SDS011;40838;50.676;7.838;2023-03-20T12:48:34;5.85;;;2.72;;
54935;SDS011;40838;50.676;7.838;2023-03-20T12:51:10;4.00;;;1.88;;
54935;SDS011;40838;50.676;7.838;2023-03-20T12:53:45;4.63;;;2.08;;
54935;SDS011;40838;50.676;7.838;2023-03-20T12:56:23;2.67;;;2.20;;
54935;SDS011;40838;50.676;7.838;2023-03-20T12:59:02;2.95;;;2.00;;
54935;SDS011;40838;50.676;7.838;2023-03-20T13:01:42;7.65;;;2.65;;
54935;SDS011;40838;50.676;7.838;2023-03-20T13:04:18;7.65;;;2.38;;
54935;SDS011;40838;50.676;7.838;2023-03-20T13:07:12;4.03;;;2.30;;
54935;SDS011;40838;50.676;7.838;2023-03-20T13:09:52;3.92;;;2.53;;
54935;SDS011;40838;50.676;7.838;2023-03-20T13:12:42;3.78;;;2.53;;
54935;SDS011;40838;50.676;7.838;2023-03-20T13:15:20;4.20;;;1.92;;
54935;SDS011;40838;50.676;7.838;2023-03-20T13:17:58;3.92;;;2.45;;
54935;SDS011;40838;50.676;7.838;2023-03-20T13:20:31;4.43;;;2.30;;
54935;SDS011;40838;50.676;7.838;2023-03-20T13:23:04;4.57;;;2.40;;
54935;SDS011;40838;50.676;7.838;2023-03-20T13:28:30;3.60;;;2.50;;
54935;SDS011;40838;50.676;7.838;2023-03-20T13:31:05;5.30;;;2.40;;
54935;SDS011;40838;50.676;7.838;2023-03-20T13:33:49;4.60;;;2.60;;
54935;SDS011;40838;50.676;7.838;2023-03-20T13:36:28;4.55;;;2.25;;
54935;SDS011;40838;50.676;7.838;2023-03-20T13:39:04;3.72;;;2.15;;
54935;SDS011;40838;50.676;7.838;2023-03-20T13:41:38;4.22;;;2.30;;
54935;SDS011;40838;50.676;7.838;2023-03-20T13:44:05;3.13;;;1.85;;
54935;SDS011;40838;50.676;7.838;2023-03-20T13:46:37;3.90;;;2.40;;
54935;SDS011;40838;50.676;7.838;2023-03-20T13:49:13;2.78;;;2.13;;
54935;SDS011;40838;50.676;7.838;2023-03-20T13:51:46;5.95;;;2.33;;
54935;SDS011;40838;50.676;7.838;2023-03-20T13:54:23;11.68;;;3.10;;
54935;SDS011;40838;50.676;7.838;2023-03-20T13:57:12;5.90;;;2.70;;
54935;SDS011;40838;50.676;7.838;2023-03-20T13:59:53;4.00;;;2.17;;
54935;SDS011;40838;50.676;7.838;2023-03-20T14:02:32;4.35;;;1.80;;
54935;SDS011;40838;50.676;7.838;2023-03-20T14:05:08;2.83;;;1.75;;
54935;SDS011;40838;50.676;7.838;2023-03-20T14:07:37;3.17;;;1.65;;
54935;SDS011;40838;50.676;7.838;2023-03-20T14:12:59;6.53;;;2.83;;
54935;SDS011;40838;50.676;7.838;2023-03-20T14:15:30;3.42;;;2.35;;
54935;SDS011;40838;50.676;7.838;2023-03-20T14:18:01;3.25;;;2.38;;
54935;SDS011;40838;50.676;7.838;2023-03-20T14:20:32;9.05;;;2.42;;
54935;SDS011;40838;50.676;7.838;2023-03-20T14:23:00;7.60;;;3.55;;
54935;SDS011;40838;50.676;7.838;2023-03-20T14:25:34;6.43;;;2.47;;
54935;SDS011;40838;50.676;7.838;2023-03-20T14:28:06;6.80;;;2.67;;
54935;SDS011;40838;50.676;7.838;2023-03-20T14:30:49;6.93;;;2.92;;
54935;SDS011;40838;50.676;7.838;2023-03-20T14:33:23;5.65;;;2.20;;
54935;SDS011;40838;50.676;7.838;2023-03-20T14:36:15;15.65;;;3.58;;
54935;SDS011;40838;50.676;7.838;2023-03-20T14:38:48;5.45;;;2.30;;
54935;SDS011;40838;50.676;7.838;2023-03-20T14:41:23;6.43;;;2.10;;
54935;SDS011;40838;50.676;7.838;2023-03-20T14:43:59;6.70;;;3.10;;
54935;SDS011;40838;50.676;7.838;2023-03-20T14:46:42;4.95;;;2.13;;
54935;SDS011;40838;50.676;7.838;2023-03-20T14:49:25;4.25;;;1.85;;
54935;SDS011;40838;50.676;7.838;2023-03-20T14:52:17;4.85;;;2.10;;
54935;SDS011;40838;50.676;7.838;2023-03-20T14:54:54;5.78;;;2.17;;
54935;SDS011;40838;50.676;7.838;2023-03-20T14:57:26;5.45;;;2.17;;
54935;SDS011;40838;50.676;7.838;2023-03-20T14:59:56;6.85;;;3.53;;
54935;SDS011;40838;50.676;7.838;2023-03-20T15:02:24;5.40;;;2.00;;
54935;SDS011;40838;50.676;7.838;2023-03-20T15:04:53;7.45;;;2.40;;
54935;SDS011;40838;50.676;7.838;2023-03-20T15:07:23;7.30;;;3.20;;
54935;SDS011;40838;50.676;7.838;2023-03-20T15:09:53;6.00;;;2.33;;
54935;SDS011;40838;50.676;7.838;2023-03-20T15:12:24;6.22;;;2.13;;
54935;SDS011;40838;50.676;7.838;2023-03-20T15:14:54;2.53;;;1.75;;
54935;SDS011;40838;50.676;7.838;2023-03-20T15:17:23;4.40;;;2.20;;